Terminal Aerodrome Forecast
Issued by NWS

Home | Current Version | Previous Version | Text Only | Print | Product List | Glossary On
Versions: 1 2 3 4 5 6 7 8 9 10 11 12 13 14 15 16 17 18 19 20 21 22 23 24 25 26 27 28
000
FTUS41 KOKX 251531 AAB
TAFGON
TAF AMD
KGON 251531Z 2516/2612 19008KT P6SM BKN120
     FM251800 18010KT P6SM BKN070 BKN250
      TEMPO 2522/2602 4SM TSRA BKN040CB
     FM260200 23005KT P6SM BKN090 BKN250 PROB30 2602/2605 4SM TSRA
      BKN040CB BKN090
     FM260500 VRB03KT P6SM FEW130 SCT250
     FM260800 VRB02KT 5SM BR SCT250=

USA.gov is the U.S. government's official web portal to all federal, state and local government web resources and services.